createdAt,value
2019-05-30T00:02:00.586Z,1.47
2019-05-30T00:04:29.160Z,1.05
2019-05-30T00:06:58.676Z,1.17
2019-05-30T00:09:27.289Z,1.57
2019-05-30T00:11:56.674Z,1.23
2019-05-30T00:14:25.256Z,1.32
2019-05-30T00:16:54.660Z,0.50
2019-05-30T00:19:23.206Z,1.30
2019-05-30T00:21:51.713Z,1.20
2019-05-30T00:24:20.251Z,0.77
2019-05-30T00:26:48.908Z,0.57
2019-05-30T00:29:17.528Z,0.65
2019-05-30T00:31:46.096Z,0.80
2019-05-30T00:34:14.673Z,0.65
2019-05-30T00:36:43.205Z,0.60
2019-05-30T00:39:11.790Z,0.42
2019-05-30T00:41:40.645Z,0.42
2019-05-30T00:44:09.241Z,0.78
2019-05-30T00:46:38.254Z,0.57
2019-05-30T00:49:06.762Z,0.50
2019-05-30T00:51:35.827Z,1.00
2019-05-30T00:54:04.741Z,0.80
2019-05-30T00:56:33.481Z,0.80
2019-05-30T00:59:02.750Z,0.53
2019-05-30T01:01:31.289Z,0.47
2019-05-30T01:04:00.791Z,0.93
2019-05-30T01:06:29.465Z,0.50
2019-05-30T01:08:59.054Z,1.40
2019-05-30T01:11:27.713Z,0.53
2019-05-30T01:13:57.014Z,1.20
2019-05-30T01:16:25.674Z,0.60
2019-05-30T01:18:54.585Z,1.35
2019-05-30T01:21:23.223Z,0.70
2019-05-30T01:23:52.229Z,0.50
2019-05-30T01:26:20.747Z,0.50
2019-05-30T01:28:49.841Z,0.60
2019-05-30T01:31:18.347Z,0.50
2019-05-30T01:33:47.413Z,0.65
2019-05-30T01:36:16.010Z,0.77
2019-05-30T01:38:44.978Z,1.15
2019-05-30T01:41:13.581Z,0.73
2019-05-30T01:43:42.578Z,1.10
2019-05-30T01:46:11.104Z,0.80
2019-05-30T01:48:40.138Z,1.10
2019-05-30T01:51:08.755Z,1.40
2019-05-30T01:53:38.393Z,0.70
2019-05-30T01:56:06.935Z,0.40
2019-05-30T01:58:35.517Z,1.13
2019-05-30T02:01:18.964Z,1.10
2019-05-30T02:03:35.321Z,1.17
2019-05-30T02:06:05.532Z,0.82
2019-05-30T02:08:34.245Z,1.43
2019-05-30T02:11:03.412Z,1.60
2019-05-30T02:13:32.398Z,1.77
2019-05-30T02:16:01.554Z,0.50
2019-05-30T02:18:30.238Z,1.73
2019-05-30T02:20:59.542Z,0.57
2019-05-30T02:23:29.086Z,1.70
2019-05-30T02:25:57.690Z,1.63
2019-05-30T02:28:26.286Z,0.60
2019-05-30T02:30:55.227Z,1.13
2019-05-30T02:33:23.825Z,0.90
2019-05-30T02:35:52.510Z,1.72
2019-05-30T02:38:21.030Z,0.53
2019-05-30T02:40:50.589Z,0.68
2019-05-30T02:43:19.178Z,0.70
2019-05-30T02:45:47.758Z,0.50
2019-05-30T02:48:16.289Z,0.67
2019-05-30T02:50:44.892Z,0.98
2019-05-30T02:53:13.564Z,1.00
2019-05-30T02:55:42.956Z,0.60
2019-05-30T02:58:12.976Z,1.80
2019-05-30T03:00:41.740Z,1.00
2019-05-30T03:03:13.922Z,0.70
2019-05-30T03:05:40.574Z,0.50
2019-05-30T03:08:11.571Z,0.90
2019-05-30T03:10:39.930Z,2.10
2019-05-30T03:13:10.654Z,0.42
2019-05-30T03:15:38.743Z,1.37
2019-05-30T03:18:09.412Z,0.43
2019-05-30T03:20:37.557Z,0.53
2019-05-30T03:23:08.339Z,0.20
2019-05-30T03:25:36.965Z,0.53
2019-05-30T03:28:07.133Z,1.43
2019-05-30T03:30:36.093Z,0.77
2019-05-30T03:33:17.185Z,0.43
2019-05-30T03:35:41.706Z,1.27
2019-05-30T03:38:05.732Z,1.23
2019-05-30T03:40:35.385Z,1.67
2019-05-30T03:43:05.471Z,0.98
2019-05-30T03:45:35.009Z,0.97
2019-05-30T03:48:06.728Z,1.55
2019-05-30T03:50:36.751Z,0.80
2019-05-30T03:53:06.866Z,0.70
2019-05-30T03:55:37.203Z,1.98
2019-05-30T03:58:10.065Z,1.00
2019-05-30T04:00:41.495Z,1.17
2019-05-30T04:03:15.624Z,1.27
2019-05-30T04:05:46.023Z,0.43
2019-05-30T04:08:16.228Z,0.73
2019-05-30T04:10:46.401Z,0.57
2019-05-30T04:13:27.002Z,1.20
2019-05-30T04:15:55.916Z,2.30
2019-05-30T04:18:24.489Z,2.00
2019-05-30T04:20:53.079Z,0.57
2019-05-30T04:23:21.656Z,1.23
2019-05-30T04:25:50.254Z,0.65
2019-05-30T04:28:18.973Z,1.63
2019-05-30T04:30:48.206Z,1.60
2019-05-30T04:33:31.742Z,1.90
2019-05-30T04:35:47.027Z,0.30
2019-05-30T04:38:17.135Z,1.30
2019-05-30T04:40:46.906Z,2.27
2019-05-30T04:43:15.779Z,1.23
2019-05-30T04:45:46.056Z,1.82
2019-05-30T04:48:16.052Z,1.03
2019-05-30T04:50:44.673Z,1.30
2019-05-30T04:53:14.048Z,1.92
2019-05-30T04:55:42.658Z,2.05
2019-05-30T04:58:13.189Z,1.10
2019-05-30T05:00:41.486Z,0.50
2019-05-30T05:03:11.319Z,1.42
2019-05-30T05:05:40.710Z,1.45
2019-05-30T05:08:09.213Z,1.63
2019-05-30T05:10:38.289Z,1.47
2019-05-30T05:13:06.869Z,1.67
2019-05-30T05:15:35.941Z,0.42
2019-05-30T05:18:04.440Z,1.87
2019-05-30T05:20:36.040Z,0.60
2019-05-30T05:23:03.675Z,1.67
2019-05-30T05:25:32.274Z,1.30
2019-05-30T05:28:00.790Z,1.70
2019-05-30T05:30:29.409Z,1.23
2019-05-30T05:32:57.981Z,1.10
2019-05-30T05:35:27.465Z,0.65
2019-05-30T05:37:55.994Z,0.60
2019-05-30T05:40:24.573Z,1.97
2019-05-30T05:42:54.137Z,1.57
2019-05-30T05:45:22.915Z,1.93
2019-05-30T05:47:51.617Z,2.90
2019-05-30T05:50:20.538Z,2.27
2019-05-30T05:52:49.254Z,1.40
2019-05-30T05:55:18.777Z,2.50
2019-05-30T05:57:48.404Z,0.50
2019-05-30T06:00:17.012Z,1.42
2019-05-30T06:02:45.609Z,2.30
2019-05-30T06:05:14.245Z,2.80
2019-05-30T06:07:42.765Z,2.70
2019-05-30T06:10:11.590Z,2.37
2019-05-30T06:12:40.192Z,2.02
2019-05-30T06:15:08.805Z,1.87
2019-05-30T06:17:37.403Z,1.32
2019-05-30T06:20:06.103Z,2.02
2019-05-30T06:22:34.627Z,2.53
2019-05-30T06:25:03.552Z,2.60
2019-05-30T06:27:32.149Z,2.33
2019-05-30T06:30:00.730Z,0.55
2019-05-30T06:32:29.242Z,0.70
2019-05-30T06:34:58.113Z,3.22
2019-05-30T06:37:27.288Z,3.30
2019-05-30T06:39:55.965Z,2.17
2019-05-30T06:42:25.725Z,0.97
2019-05-30T06:44:54.367Z,2.92
2019-05-30T06:47:24.300Z,1.57
2019-05-30T06:49:52.965Z,1.00
2019-05-30T06:52:22.829Z,1.00
2019-05-30T06:54:52.481Z,1.67
2019-05-30T06:57:21.190Z,0.50
2019-05-30T06:59:49.742Z,2.90
2019-05-30T07:02:18.352Z,1.60
2019-05-30T07:04:51.927Z,3.00
2019-05-30T07:07:17.668Z,2.57
2019-05-30T07:09:46.325Z,3.07
2019-05-30T07:12:15.854Z,1.85
2019-05-30T07:14:44.450Z,4.13
2019-05-30T07:17:13.035Z,3.72
2019-05-30T07:19:41.642Z,3.77
2019-05-30T07:22:10.207Z,4.35
2019-05-30T07:24:39.019Z,4.55
2019-05-30T07:27:07.639Z,3.40
2019-05-30T07:29:36.582Z,2.30
2019-05-30T07:32:05.157Z,4.03
2019-05-30T07:34:34.301Z,5.25
2019-05-30T07:37:02.826Z,0.97
2019-05-30T07:39:35.080Z,4.03
2019-05-30T07:42:06.128Z,1.42
2019-05-30T07:44:32.853Z,4.22
2019-05-30T07:47:01.462Z,4.28
2019-05-30T07:49:30.443Z,4.47
2019-05-30T07:51:59.957Z,4.72
2019-05-30T07:54:28.914Z,1.40
2019-05-30T07:56:57.462Z,2.90
2019-05-30T07:59:26.485Z,3.33
2019-05-30T08:01:55.069Z,1.30
2019-05-30T08:04:23.946Z,1.80
2019-05-30T08:06:52.486Z,1.97
2019-05-30T08:09:21.466Z,2.10
2019-05-30T08:11:50.041Z,2.20
2019-05-30T08:14:18.964Z,2.02
2019-05-30T08:16:47.545Z,2.20
2019-05-30T08:19:16.533Z,2.70
2019-05-30T08:21:45.066Z,2.40
2019-05-30T08:24:14.050Z,2.30
2019-05-30T08:26:42.585Z,2.57
2019-05-30T08:29:11.199Z,2.17
2019-05-30T08:31:39.718Z,2.60
2019-05-30T08:34:08.306Z,2.67
2019-05-30T08:36:37.080Z,3.20
2019-05-30T08:39:06.435Z,2.87
2019-05-30T08:41:35.304Z,3.20
2019-05-30T08:44:04.146Z,3.43
2019-05-30T08:46:33.733Z,3.52
2019-05-30T08:49:02.420Z,3.93
2019-05-30T08:51:31.868Z,3.37
2019-05-30T08:54:00.726Z,3.43
2019-05-30T08:56:30.306Z,3.52
2019-05-30T08:58:58.890Z,3.57
2019-05-30T09:01:27.507Z,3.90
2019-05-30T09:03:56.093Z,3.80
2019-05-30T09:06:24.621Z,3.33
2019-05-30T09:08:53.162Z,3.90
2019-05-30T09:11:21.753Z,3.37
2019-05-30T09:13:50.266Z,3.80
2019-05-30T09:16:18.866Z,3.40
2019-05-30T09:18:48.417Z,4.27
2019-05-30T09:21:16.954Z,4.10
2019-05-30T09:23:46.234Z,3.50
2019-05-30T09:26:15.054Z,4.03
2019-05-30T09:28:44.233Z,3.90
2019-05-30T09:31:12.924Z,3.67
2019-05-30T09:33:42.694Z,3.70
2019-05-30T09:36:13.486Z,3.08
2019-05-30T09:38:41.833Z,3.80
2019-05-30T09:41:10.947Z,3.10
2019-05-30T09:43:39.869Z,3.40
2019-05-30T09:46:09.703Z,3.47
2019-05-30T09:48:38.721Z,3.77
2019-05-30T09:51:07.245Z,3.25
2019-05-30T09:53:35.861Z,3.17
2019-05-30T09:56:04.824Z,3.05
2019-05-30T09:58:33.470Z,3.37
2019-05-30T10:01:02.003Z,2.20
2019-05-30T10:03:30.599Z,3.08
2019-05-30T10:05:59.185Z,1.80
2019-05-30T10:08:27.794Z,1.30
2019-05-30T10:10:56.378Z,1.60
2019-05-30T10:13:25.000Z,1.50
2019-05-30T10:15:53.584Z,1.60
2019-05-30T10:18:22.397Z,1.87
2019-05-30T10:20:51.928Z,1.80
2019-05-30T10:23:21.140Z,1.90
2019-05-30T10:25:51.128Z,1.27
2019-05-30T10:28:19.735Z,1.67
2019-05-30T10:30:53.870Z,1.55
2019-05-30T10:33:19.579Z,1.80
2019-05-30T10:35:49.153Z,1.30
2019-05-30T10:38:20.017Z,1.27
2019-05-30T10:40:48.840Z,1.42
2019-05-30T10:43:18.330Z,1.87
2019-05-30T10:45:47.905Z,1.90
2019-05-30T10:48:20.575Z,1.72
2019-05-30T10:50:48.554Z,2.60
2019-05-30T10:53:18.141Z,3.67
2019-05-30T10:55:48.094Z,3.67
2019-05-30T10:58:16.815Z,2.45
2019-05-30T11:00:53.732Z,2.97
2019-05-30T11:03:23.799Z,5.50
2019-05-30T11:05:58.889Z,3.37
2019-05-30T11:08:28.969Z,1.47
2019-05-30T11:10:57.479Z,1.63
2019-05-30T11:13:25.982Z,3.60
2019-05-30T11:15:55.527Z,1.45
2019-05-30T11:18:24.133Z,4.23
2019-05-30T11:20:54.024Z,3.72
2019-05-30T11:23:22.618Z,1.87
2019-05-30T11:25:52.504Z,1.70
2019-05-30T11:28:21.301Z,1.53
2019-05-30T11:30:50.630Z,3.97
2019-05-30T11:33:19.233Z,1.50
2019-05-30T11:35:48.865Z,1.67
2019-05-30T11:38:17.549Z,2.65
2019-05-30T11:40:46.146Z,1.93
2019-05-30T11:43:14.737Z,1.80
2019-05-30T11:45:43.249Z,1.85
2019-05-30T11:48:11.935Z,2.70
2019-05-30T11:50:40.522Z,2.87
2019-05-30T11:53:10.185Z,1.17
2019-05-30T11:55:38.750Z,2.67
2019-05-30T11:58:07.336Z,2.60
2019-05-30T12:00:35.857Z,2.60
2019-05-30T12:03:04.759Z,1.15
2019-05-30T12:05:33.377Z,2.40
2019-05-30T12:08:01.974Z,1.83
2019-05-30T12:10:30.558Z,1.60
2019-05-30T12:12:59.543Z,1.22
2019-05-30T12:15:28.273Z,2.80
2019-05-30T12:17:57.484Z,4.23
2019-05-30T12:20:26.612Z,4.75
2019-05-30T12:22:55.916Z,6.15
2019-05-30T12:25:24.493Z,3.33
2019-05-30T12:27:53.964Z,1.67
2019-05-30T12:30:24.114Z,1.40
2019-05-30T12:32:52.707Z,3.92
2019-05-30T12:35:22.046Z,4.00
2019-05-30T12:37:56.071Z,1.60
2019-05-30T12:40:20.958Z,2.00
2019-05-30T12:42:49.482Z,1.70
2019-05-30T12:45:18.301Z,2.27
2019-05-30T12:47:47.375Z,1.85
2019-05-30T12:50:16.885Z,1.65
2019-05-30T12:52:45.550Z,1.07
2019-05-30T12:55:14.088Z,1.80
2019-05-30T12:57:42.734Z,1.57
2019-05-30T13:00:17.201Z,0.70
2019-05-30T13:02:42.433Z,1.87
2019-05-30T13:05:11.155Z,1.20
2019-05-30T13:07:41.377Z,1.25
2019-05-30T13:10:10.278Z,1.23
2019-05-30T13:12:38.813Z,1.40
2019-05-30T13:15:07.638Z,1.37
2019-05-30T13:17:36.692Z,1.20
2019-05-30T13:20:05.860Z,1.15
2019-05-30T13:22:34.525Z,1.20
2019-05-30T13:25:03.838Z,0.97
2019-05-30T13:27:32.441Z,1.10
2019-05-30T13:30:02.168Z,0.60
2019-05-30T13:32:30.933Z,0.80
2019-05-30T13:34:59.451Z,0.93
2019-05-30T13:37:28.243Z,1.07
2019-05-30T13:39:57.058Z,0.87
2019-05-30T13:42:26.779Z,0.80
2019-05-30T13:44:55.358Z,0.87
2019-05-30T13:47:23.923Z,1.30
2019-05-30T13:49:52.530Z,1.07
2019-05-30T13:52:21.160Z,0.70
2019-05-30T13:54:49.774Z,1.20
2019-05-30T13:57:18.374Z,0.93
2019-05-30T13:59:46.890Z,0.68
2019-05-30T14:02:16.480Z,0.85
2019-05-30T14:04:45.085Z,0.80
2019-05-30T14:07:13.688Z,0.70
2019-05-30T14:09:42.286Z,0.78
2019-05-30T14:12:10.861Z,1.20
2019-05-30T14:14:39.390Z,1.10
2019-05-30T14:17:09.528Z,0.77
2019-05-30T14:19:38.190Z,0.90
2019-05-30T14:22:07.256Z,0.70
2019-05-30T14:24:36.235Z,1.15
2019-05-30T14:27:05.512Z,0.95
2019-05-30T14:29:34.187Z,1.05
2019-05-30T14:32:03.728Z,0.80
2019-05-30T14:34:32.494Z,1.13
2019-05-30T14:37:02.279Z,1.17
2019-05-30T14:39:31.113Z,0.90
2019-05-30T14:42:00.089Z,1.10
2019-05-30T14:44:28.637Z,0.60
2019-05-30T14:46:57.151Z,0.50
2019-05-30T14:49:25.757Z,0.80
2019-05-30T14:51:54.361Z,1.27
2019-05-30T14:54:22.951Z,1.35
2019-05-30T14:56:51.478Z,1.13
2019-05-30T14:59:20.932Z,0.93
2019-05-30T15:01:49.530Z,1.07
2019-05-30T15:04:18.138Z,1.13
2019-05-30T15:06:46.742Z,0.90
2019-05-30T15:09:25.497Z,1.27
2019-05-30T15:11:45.526Z,1.20
2019-05-30T15:14:14.118Z,0.55
2019-05-30T15:16:43.230Z,1.25
2019-05-30T15:19:12.387Z,1.07
2019-05-30T15:21:41.030Z,0.93
2019-05-30T15:24:09.817Z,1.60
2019-05-30T15:26:38.894Z,1.10
2019-05-30T15:29:08.027Z,1.05
2019-05-30T15:31:36.606Z,0.95
2019-05-30T15:34:06.319Z,1.10
2019-05-30T15:36:34.992Z,1.13
2019-05-30T15:39:06.744Z,1.43
2019-05-30T15:41:35.445Z,1.20
2019-05-30T15:44:04.024Z,0.43
2019-05-30T15:46:32.636Z,1.32
2019-05-30T15:49:01.258Z,0.55
2019-05-30T15:51:29.845Z,1.30
2019-05-30T15:53:58.386Z,1.20
2019-05-30T15:56:26.985Z,1.30
2019-05-30T15:58:55.570Z,1.20
2019-05-30T16:01:24.173Z,0.80
2019-05-30T16:03:52.770Z,0.57
2019-05-30T16:06:21.398Z,0.90
2019-05-30T16:08:50.233Z,0.62
2019-05-30T16:11:19.117Z,1.47
2019-05-30T16:13:47.770Z,1.20
2019-05-30T16:16:17.569Z,1.63
2019-05-30T16:18:46.553Z,1.50
2019-05-30T16:21:16.108Z,1.40
2019-05-30T16:23:45.313Z,1.70
2019-05-30T16:26:13.839Z,0.90
2019-05-30T16:28:42.367Z,1.52
2019-05-30T16:31:11.062Z,1.37
2019-05-30T16:33:39.661Z,1.63
2019-05-30T16:36:08.257Z,1.85
2019-05-30T16:38:36.929Z,1.55
2019-05-30T16:41:05.537Z,1.13
2019-05-30T16:43:34.135Z,1.63
2019-05-30T16:46:02.798Z,0.63
2019-05-30T16:48:31.798Z,0.85
2019-05-30T16:51:00.433Z,1.82
2019-05-30T16:53:28.941Z,1.50
2019-05-30T16:55:57.470Z,1.67
2019-05-30T16:58:26.101Z,1.23
2019-05-30T17:00:55.506Z,2.08
2019-05-30T17:03:24.146Z,2.00
2019-05-30T17:05:53.866Z,1.80
2019-05-30T17:08:22.686Z,1.80
2019-05-30T17:10:51.313Z,1.40
2019-05-30T17:13:19.897Z,2.08
2019-05-30T17:15:48.428Z,1.13
2019-05-30T17:18:18.056Z,2.23
2019-05-30T17:20:46.611Z,1.67
2019-05-30T17:23:15.186Z,1.93
2019-05-30T17:25:43.777Z,0.90
2019-05-30T17:28:14.904Z,1.30
2019-05-30T17:30:42.625Z,2.57
2019-05-30T17:33:11.151Z,0.88
2019-05-30T17:35:40.250Z,1.97
2019-05-30T17:38:09.783Z,2.00
2019-05-30T17:40:44.661Z,2.25
2019-05-30T17:43:09.330Z,1.10
2019-05-30T17:45:37.869Z,1.15
2019-05-30T17:48:16.179Z,1.80
2019-05-30T17:50:37.266Z,1.37
2019-05-30T17:53:05.927Z,1.85
2019-05-30T17:55:34.532Z,1.90
2019-05-30T17:58:03.069Z,1.47
2019-05-30T18:00:32.163Z,2.05
2019-05-30T18:03:01.001Z,2.00
2019-05-30T18:05:30.850Z,1.57
2019-05-30T18:07:59.610Z,1.87
2019-05-30T18:10:29.019Z,1.62
2019-05-30T18:12:57.737Z,0.50
2019-05-30T18:15:29.133Z,1.35
2019-05-30T18:17:56.556Z,1.20
2019-05-30T18:20:25.381Z,1.45
2019-05-30T18:22:53.921Z,1.63
2019-05-30T18:25:23.600Z,1.67
2019-05-30T18:27:52.981Z,1.73
2019-05-30T18:30:23.719Z,2.03
2019-05-30T18:32:52.558Z,2.30
2019-05-30T18:35:22.174Z,1.17
2019-05-30T18:37:50.765Z,1.87
2019-05-30T18:40:29.165Z,1.17
2019-05-30T18:42:57.781Z,2.00
2019-05-30T18:45:34.465Z,2.33
2019-05-30T18:48:04.566Z,1.70
2019-05-30T18:50:33.533Z,1.40
2019-05-30T18:53:02.675Z,1.40
2019-05-30T18:55:31.373Z,1.87
2019-05-30T18:57:59.982Z,1.30
2019-05-30T19:00:29.172Z,1.70
2019-05-30T19:02:58.018Z,1.62
2019-05-30T19:05:26.713Z,1.43
2019-05-30T19:07:55.582Z,1.82
2019-05-30T19:10:24.150Z,1.17
2019-05-30T19:12:52.679Z,1.50
2019-05-30T19:15:21.565Z,0.93
2019-05-30T19:17:50.250Z,0.90
2019-05-30T19:20:19.522Z,1.37
2019-05-30T19:22:48.152Z,1.25
2019-05-30T19:25:17.841Z,1.33
2019-05-30T19:27:46.424Z,1.00
2019-05-30T19:30:15.333Z,1.80
2019-05-30T19:32:43.965Z,1.10
2019-05-30T19:35:14.312Z,0.80
2019-05-30T19:37:42.981Z,1.40
2019-05-30T19:40:11.682Z,1.40
2019-05-30T19:42:40.244Z,1.67
2019-05-30T19:45:10.026Z,0.50
2019-05-30T19:47:38.953Z,1.17
2019-05-30T19:50:08.654Z,1.00
2019-05-30T19:52:37.286Z,0.88
2019-05-30T19:55:05.902Z,1.65
2019-05-30T19:57:35.580Z,1.07
2019-05-30T20:00:05.008Z,1.57
2019-05-30T20:02:36.103Z,1.92
2019-05-30T20:05:05.174Z,1.40
2019-05-30T20:07:34.584Z,1.20
2019-05-30T20:10:03.513Z,1.63
2019-05-30T20:12:32.667Z,1.60
2019-05-30T20:15:01.308Z,1.50
2019-05-30T20:17:31.909Z,1.25
2019-05-30T20:20:00.541Z,1.50
2019-05-30T20:22:29.206Z,1.80
2019-05-30T20:24:57.778Z,1.22
2019-05-30T20:27:26.394Z,1.60
2019-05-30T20:29:54.914Z,1.10
2019-05-30T20:32:23.526Z,1.47
2019-05-30T20:34:52.125Z,1.60
2019-05-30T20:37:21.065Z,1.40
2019-05-30T20:39:49.629Z,1.60
2019-05-30T20:42:19.455Z,1.17
2019-05-30T20:44:48.401Z,1.40
2019-05-30T20:47:17.005Z,1.70
2019-05-30T20:49:45.824Z,0.85
2019-05-30T20:52:14.397Z,1.35
2019-05-30T20:54:43.507Z,1.47
2019-05-30T20:57:13.161Z,1.20
2019-05-30T20:59:42.714Z,0.93
2019-05-30T21:02:11.446Z,1.23
2019-05-30T21:04:40.932Z,1.35
2019-05-30T21:07:10.232Z,1.30
2019-05-30T21:09:39.982Z,1.10
2019-05-30T21:12:08.553Z,1.70
2019-05-30T21:14:37.368Z,1.33
2019-05-30T21:17:06.582Z,1.40
2019-05-30T21:19:35.898Z,1.05
2019-05-30T21:22:04.520Z,1.12
2019-05-30T21:24:33.230Z,1.20
2019-05-30T21:27:01.829Z,1.40
2019-05-30T21:29:30.491Z,1.27
2019-05-30T21:31:59.013Z,1.70
2019-05-30T21:34:27.644Z,1.25
2019-05-30T21:36:56.260Z,1.10
2019-05-30T21:39:24.902Z,1.50
2019-05-30T21:41:53.503Z,1.30
2019-05-30T21:44:22.242Z,1.42
2019-05-30T21:46:50.854Z,1.10
2019-05-30T21:49:19.373Z,0.85
2019-05-30T21:51:48.003Z,1.20
2019-05-30T21:54:16.669Z,1.60
2019-05-30T21:56:45.987Z,1.22
2019-05-30T21:59:14.694Z,1.27
2019-05-30T22:01:44.824Z,1.10
2019-05-30T22:04:13.453Z,1.20
2019-05-30T22:06:42.817Z,1.30
2019-05-30T22:09:11.475Z,1.10
2019-05-30T22:11:41.478Z,1.02
2019-05-30T22:14:10.461Z,1.37
2019-05-30T22:16:39.251Z,0.98
2019-05-30T22:19:08.247Z,1.35
2019-05-30T22:21:36.871Z,1.57
2019-05-30T22:24:05.465Z,1.50
2019-05-30T22:26:34.001Z,1.27
2019-05-30T22:29:02.670Z,1.30
2019-05-30T22:31:31.272Z,1.60
2019-05-30T22:33:59.950Z,1.57
2019-05-30T22:36:28.615Z,1.77
2019-05-30T22:38:57.213Z,1.32
2019-05-30T22:41:26.421Z,1.20
2019-05-30T22:43:54.989Z,1.35
2019-05-30T22:46:23.607Z,1.20
2019-05-30T22:48:52.920Z,1.50
2019-05-30T22:51:21.704Z,0.70
2019-05-30T22:53:51.164Z,0.90
2019-05-30T22:56:19.807Z,1.20
2019-05-30T22:58:49.907Z,1.40
2019-05-30T23:01:18.814Z,1.27
2019-05-30T23:03:47.351Z,1.35
2019-05-30T23:06:15.934Z,1.40
2019-05-30T23:08:44.510Z,1.03
2019-05-30T23:11:13.118Z,1.57
2019-05-30T23:13:41.640Z,1.43
2019-05-30T23:16:10.263Z,1.30
2019-05-30T23:18:38.859Z,1.37
2019-05-30T23:21:07.398Z,1.50
2019-05-30T23:23:35.997Z,1.30
2019-05-30T23:26:04.619Z,1.30
2019-05-30T23:28:33.302Z,1.35
2019-05-30T23:31:01.902Z,1.23
2019-05-30T23:33:30.490Z,1.17
2019-05-30T23:35:59.163Z,1.20
2019-05-30T23:38:27.677Z,1.67
2019-05-30T23:40:57.362Z,1.10
2019-05-30T23:43:25.954Z,2.00
2019-05-30T23:45:55.676Z,1.60
2019-05-30T23:48:24.432Z,1.30
2019-05-30T23:50:53.847Z,0.80
2019-05-30T23:53:22.430Z,0.90
2019-05-30T23:55:52.022Z,1.10
2019-05-30T23:58:20.829Z,1.77
